sensor_id;sensor_type;location;lat;lon;timestamp;P1;durP1;ratioP1;P2;durP2;ratioP2
26824;SDS011;14402;48.178;11.566;2023-10-31T00:00:22;0.9;;;0.5;;
26824;SDS011;14402;48.178;11.566;2023-10-31T00:00:52;0.9;;;0.5;;
26824;SDS011;14402;48.178;11.566;2023-10-31T00:01:22;0.9;;;0.5;;
26824;SDS011;14402;48.178;11.566;2023-10-31T00:01:52;0.8;;;0.5;;
26824;SDS011;14402;48.178;11.566;2023-10-31T00:02:22;0.8;;;0.5;;
26824;SDS011;14402;48.178;11.566;2023-10-31T00:02:52;0.8;;;0.5;;
26824;SDS011;14402;48.178;11.566;2023-10-31T00:03:22;0.8;;;0.4;;
26824;SDS011;14402;48.178;11.566;2023-10-31T00:03:53;0.8;;;0.4;;
26824;SDS011;14402;48.178;11.566;2023-10-31T00:04:23;0.8;;;0.4;;
26824;SDS011;14402;48.178;11.566;2023-10-31T00:04:53;0.8;;;0.4;;
26824;SDS011;14402;48.178;11.566;2023-10-31T00:05:23;0.6;;;0.4;;
26824;SDS011;14402;48.178;11.566;2023-10-31T00:05:53;0.5;;;0.4;;
26824;SDS011;14402;48.178;11.566;2023-10-31T00:06:23;0.5;;;0.4;;
26824;SDS011;14402;48.178;11.566;2023-10-31T00:06:53;0.5;;;0.4;;
26824;SDS011;14402;48.178;11.566;2023-10-31T00:07:23;0.7;;;0.4;;
26824;SDS011;14402;48.178;11.566;2023-10-31T00:07:53;0.9;;;0.5;;
26824;SDS011;14402;48.178;11.566;2023-10-31T00:08:23;0.9;;;0.5;;
26824;SDS011;14402;48.178;11.566;2023-10-31T00:08:53;0.9;;;0.5;;
26824;SDS011;14402;48.178;11.566;2023-10-31T00:09:23;0.8;;;0.4;;
26824;SDS011;14402;48.178;11.566;2023-10-31T00:09:53;0.7;;;0.4;;
26824;SDS011;14402;48.178;11.566;2023-10-31T00:10:23;0.7;;;0.4;;
26824;SDS011;14402;48.178;11.566;2023-10-31T00:10:53;0.7;;;0.4;;
26824;SDS011;14402;48.178;11.566;2023-10-31T00:11:23;0.7;;;0.4;;
26824;SDS011;14402;48.178;11.566;2023-10-31T00:11:53;0.7;;;0.4;;
26824;SDS011;14402;48.178;11.566;2023-10-31T00:12:24;0.7;;;0.4;;
26824;SDS011;14402;48.178;11.566;2023-10-31T00:12:54;0.7;;;0.4;;
26824;SDS011;14402;48.178;11.566;2023-10-31T00:13:24;0.7;;;0.4;;
26824;SDS011;14402;48.178;11.566;2023-10-31T00:13:54;0.7;;;0.3;;
26824;SDS011;14402;48.178;11.566;2023-10-31T00:14:24;0.7;;;0.3;;
26824;SDS011;14402;48.178;11.566;2023-10-31T00:14:54;0.7;;;0.3;;
26824;SDS011;14402;48.178;11.566;2023-10-31T00:15:24;0.7;;;0.3;;
26824;SDS011;14402;48.178;11.566;2023-10-31T00:15:54;0.7;;;0.3;;
26824;SDS011;14402;48.178;11.566;2023-10-31T00:16:24;0.7;;;0.3;;
26824;SDS011;14402;48.178;11.566;2023-10-31T00:16:54;0.7;;;0.3;;
26824;SDS011;14402;48.178;11.566;2023-10-31T00:17:25;0.6;;;0.3;;
26824;SDS011;14402;48.178;11.566;2023-10-31T00:17:54;0.5;;;0.3;;
26824;SDS011;14402;48.178;11.566;2023-10-31T00:18:24;0.5;;;0.3;;
26824;SDS011;14402;48.178;11.566;2023-10-31T00:18:54;0.5;;;0.3;;
26824;SDS011;14402;48.178;11.566;2023-10-31T00:19:24;0.6;;;0.3;;
26824;SDS011;14402;48.178;11.566;2023-10-31T00:19:55;0.7;;;0.3;;
26824;SDS011;14402;48.178;11.566;2023-10-31T00:20:25;0.7;;;0.3;;
26824;SDS011;14402;48.178;11.566;2023-10-31T00:20:55;0.7;;;0.3;;
26824;SDS011;14402;48.178;11.566;2023-10-31T00:21:25;0.6;;;0.2;;
26824;SDS011;14402;48.178;11.566;2023-10-31T00:21:55;0.4;;;0.2;;
26824;SDS011;14402;48.178;11.566;2023-10-31T00:22:25;0.4;;;0.2;;
26824;SDS011;14402;48.178;11.566;2023-10-31T00:22:55;0.4;;;0.2;;
26824;SDS011;14402;48.178;11.566;2023-10-31T00:23:25;0.6;;;0.2;;
26824;SDS011;14402;48.178;11.566;2023-10-31T00:23:55;0.8;;;0.3;;
26824;SDS011;14402;48.178;11.566;2023-10-31T00:24:25;0.8;;;0.3;;
26824;SDS011;14402;48.178;11.566;2023-10-31T00:24:55;0.8;;;0.3;;
26824;SDS011;14402;48.178;11.566;2023-10-31T00:25:25;0.6;;;0.2;;
26824;SDS011;14402;48.178;11.566;2023-10-31T00:25:55;0.4;;;0.2;;
26824;SDS011;14402;48.178;11.566;2023-10-31T00:26:25;0.4;;;0.2;;
26824;SDS011;14402;48.178;11.566;2023-10-31T00:26:55;0.4;;;0.2;;
26824;SDS011;14402;48.178;11.566;2023-10-31T00:27:25;0.5;;;0.2;;
26824;SDS011;14402;48.178;11.566;2023-10-31T00:27:55;0.6;;;0.3;;
26824;SDS011;14402;48.178;11.566;2023-10-31T00:28:26;0.6;;;0.3;;
26824;SDS011;14402;48.178;11.566;2023-10-31T00:28:56;0.6;;;0.3;;
26824;SDS011;14402;48.178;11.566;2023-10-31T00:29:26;0.6;;;0.2;;
26824;SDS011;14402;48.178;11.566;2023-10-31T00:29:56;0.6;;;0.2;;
26824;SDS011;14402;48.178;11.566;2023-10-31T00:30:26;0.6;;;0.2;;
26824;SDS011;14402;48.178;11.566;2023-10-31T00:30:56;0.6;;;0.2;;
26824;SDS011;14402;48.178;11.566;2023-10-31T00:31:26;0.6;;;0.2;;
26824;SDS011;14402;48.178;11.566;2023-10-31T00:31:56;0.6;;;0.3;;
26824;SDS011;14402;48.178;11.566;2023-10-31T00:32:26;0.6;;;0.3;;
26824;SDS011;14402;48.178;11.566;2023-10-31T00:32:56;0.6;;;0.3;;
26824;SDS011;14402;48.178;11.566;2023-10-31T00:33:26;0.5;;;0.2;;
26824;SDS011;14402;48.178;11.566;2023-10-31T00:33:56;0.4;;;0.2;;
26824;SDS011;14402;48.178;11.566;2023-10-31T00:34:26;0.4;;;0.2;;
26824;SDS011;14402;48.178;11.566;2023-10-31T00:34:56;0.4;;;0.2;;
26824;SDS011;14402;48.178;11.566;2023-10-31T00:35:26;0.5;;;0.2;;
26824;SDS011;14402;48.178;11.566;2023-10-31T00:35:56;0.6;;;0.2;;
26824;SDS011;14402;48.178;11.566;2023-10-31T00:36:27;0.6;;;0.2;;
26824;SDS011;14402;48.178;11.566;2023-10-31T00:36:57;0.6;;;0.2;;
26824;SDS011;14402;48.178;11.566;2023-10-31T00:37:27;0.6;;;0.2;;
26824;SDS011;14402;48.178;11.566;2023-10-31T00:37:57;0.6;;;0.2;;
26824;SDS011;14402;48.178;11.566;2023-10-31T00:38:27;0.6;;;0.2;;
26824;SDS011;14402;48.178;11.566;2023-10-31T00:38:57;0.6;;;0.2;;
26824;SDS011;14402;48.178;11.566;2023-10-31T00:39:27;0.5;;;0.2;;
26824;SDS011;14402;48.178;11.566;2023-10-31T00:39:57;0.3;;;0.1;;
26824;SDS011;14402;48.178;11.566;2023-10-31T00:40:27;0.3;;;0.1;;
26824;SDS011;14402;48.178;11.566;2023-10-31T00:40:57;0.3;;;0.1;;
26824;SDS011;14402;48.178;11.566;2023-10-31T00:41:27;0.4;;;0.2;;
26824;SDS011;14402;48.178;11.566;2023-10-31T00:41:57;0.5;;;0.2;;
26824;SDS011;14402;48.178;11.566;2023-10-31T00:42:27;0.5;;;0.2;;
26824;SDS011;14402;48.178;11.566;2023-10-31T00:42:57;0.5;;;0.2;;
26824;SDS011;14402;48.178;11.566;2023-10-31T00:43:27;0.4;;;0.2;;
26824;SDS011;14402;48.178;11.566;2023-10-31T00:43:57;0.4;;;0.1;;
26824;SDS011;14402;48.178;11.566;2023-10-31T00:44:27;0.4;;;0.1;;
26824;SDS011;14402;48.178;11.566;2023-10-31T00:44:58;0.4;;;0.1;;
26824;SDS011;14402;48.178;11.566;2023-10-31T00:45:27;0.4;;;0.2;;
26824;SDS011;14402;48.178;11.566;2023-10-31T00:45:58;0.4;;;0.2;;
26824;SDS011;14402;48.178;11.566;2023-10-31T00:46:28;0.4;;;0.2;;
26824;SDS011;14402;48.178;11.566;2023-10-31T00:46:58;0.4;;;0.2;;
26824;SDS011;14402;48.178;11.566;2023-10-31T00:47:28;0.4;;;0.2;;
26824;SDS011;14402;48.178;11.566;2023-10-31T00:47:58;0.3;;;0.2;;
26824;SDS011;14402;48.178;11.566;2023-10-31T00:48:28;0.3;;;0.2;;
26824;SDS011;14402;48.178;11.566;2023-10-31T00:48:58;0.3;;;0.2;;
26824;SDS011;14402;48.178;11.566;2023-10-31T00:49:28;0.4;;;0.2;;
26824;SDS011;14402;48.178;11.566;2023-10-31T00:49:58;0.4;;;0.2;;
26824;SDS011;14402;48.178;11.566;2023-10-31T00:50:28;0.4;;;0.2;;
26824;SDS011;14402;48.178;11.566;2023-10-31T00:50:58;0.4;;;0.2;;
26824;SDS011;14402;48.178;11.566;2023-10-31T00:51:28;0.4;;;0.2;;
26824;SDS011;14402;48.178;11.566;2023-10-31T00:51:58;0.4;;;0.2;;
26824;SDS011;14402;48.178;11.566;2023-10-31T00:52:28;0.4;;;0.2;;
26824;SDS011;14402;48.178;11.566;2023-10-31T00:52:58;0.4;;;0.2;;
26824;SDS011;14402;48.178;11.566;2023-10-31T00:53:28;0.4;;;0.2;;
26824;SDS011;14402;48.178;11.566;2023-10-31T00:53:58;0.4;;;0.2;;
26824;SDS011;14402;48.178;11.566;2023-10-31T00:54:29;0.4;;;0.2;;
26824;SDS011;14402;48.178;11.566;2023-10-31T00:54:59;0.4;;;0.2;;
26824;SDS011;14402;48.178;11.566;2023-10-31T00:55:29;0.4;;;0.2;;
26824;SDS011;14402;48.178;11.566;2023-10-31T00:55:59;0.5;;;0.3;;
26824;SDS011;14402;48.178;11.566;2023-10-31T00:56:29;0.5;;;0.3;;
26824;SDS011;14402;48.178;11.566;2023-10-31T00:56:59;0.5;;;0.3;;
26824;SDS011;14402;48.178;11.566;2023-10-31T00:57:29;0.3;;;0.2;;
26824;SDS011;14402;48.178;11.566;2023-10-31T00:57:59;0.2;;;0.1;;
26824;SDS011;14402;48.178;11.566;2023-10-31T00:58:29;0.2;;;0.1;;
26824;SDS011;14402;48.178;11.566;2023-10-31T00:58:59;0.2;;;0.1;;
26824;SDS011;14402;48.178;11.566;2023-10-31T00:59:29;0.2;;;0.1;;
26824;SDS011;14402;48.178;11.566;2023-10-31T00:59:59;0.2;;;0.1;;
26824;SDS011;14402;48.178;11.566;2023-10-31T01:00:29;0.2;;;0.1;;
26824;SDS011;14402;48.178;11.566;2023-10-31T01:00:59;0.2;;;0.1;;
26824;SDS011;14402;48.178;11.566;2023-10-31T01:01:29;0.3;;;0.2;;
26824;SDS011;14402;48.178;11.566;2023-10-31T01:02:00;0.5;;;0.3;;
26824;SDS011;14402;48.178;11.566;2023-10-31T01:02:30;0.5;;;0.3;;
26824;SDS011;14402;48.178;11.566;2023-10-31T01:03:00;0.5;;;0.3;;
26824;SDS011;14402;48.178;11.566;2023-10-31T01:03:30;0.6;;;0.3;;
26824;SDS011;14402;48.178;11.566;2023-10-31T01:04:00;0.7;;;0.3;;
26824;SDS011;14402;48.178;11.566;2023-10-31T01:04:30;0.7;;;0.3;;
26824;SDS011;14402;48.178;11.566;2023-10-31T01:05:00;0.7;;;0.3;;
26824;SDS011;14402;48.178;11.566;2023-10-31T01:05:30;0.5;;;0.2;;
26824;SDS011;14402;48.178;11.566;2023-10-31T01:06:00;0.3;;;0.1;;
26824;SDS011;14402;48.178;11.566;2023-10-31T01:06:30;0.3;;;0.1;;
26824;SDS011;14402;48.178;11.566;2023-10-31T01:07:00;0.3;;;0.1;;
26824;SDS011;14402;48.178;11.566;2023-10-31T01:07:30;0.4;;;0.1;;
26824;SDS011;14402;48.178;11.566;2023-10-31T01:08:00;0.4;;;0.1;;
26824;SDS011;14402;48.178;11.566;2023-10-31T01:08:30;0.4;;;0.1;;
26824;SDS011;14402;48.178;11.566;2023-10-31T01:09:00;0.4;;;0.1;;
26824;SDS011;14402;48.178;11.566;2023-10-31T01:09:30;0.4;;;0.1;;
26824;SDS011;14402;48.178;11.566;2023-10-31T01:10:01;0.5;;;0.1;;
26824;SDS011;14402;48.178;11.566;2023-10-31T01:10:31;0.5;;;0.1;;
26824;SDS011;14402;48.178;11.566;2023-10-31T01:11:01;0.5;;;0.1;;
26824;SDS011;14402;48.178;11.566;2023-10-31T01:11:31;0.3;;;0.1;;
26824;SDS011;14402;48.178;11.566;2023-10-31T01:12:01;0.2;;;0.1;;
26824;SDS011;14402;48.178;11.566;2023-10-31T01:12:31;0.2;;;0.1;;
26824;SDS011;14402;48.178;11.566;2023-10-31T01:13:01;0.2;;;0.1;;
26824;SDS011;14402;48.178;11.566;2023-10-31T01:13:31;0.2;;;0.1;;
26824;SDS011;14402;48.178;11.566;2023-10-31T01:14:01;0.3;;;0.1;;
26824;SDS011;14402;48.178;11.566;2023-10-31T01:14:31;0.3;;;0.1;;
26824;SDS011;14402;48.178;11.566;2023-10-31T01:15:01;0.3;;;0.1;;
26824;SDS011;14402;48.178;11.566;2023-10-31T01:15:31;0.2;;;0.1;;
26824;SDS011;14402;48.178;11.566;2023-10-31T01:16:01;0.2;;;0.1;;
26824;SDS011;14402;48.178;11.566;2023-10-31T01:16:31;0.2;;;0.1;;
26824;SDS011;14402;48.178;11.566;2023-10-31T01:17:01;0.2;;;0.1;;
26824;SDS011;14402;48.178;11.566;2023-10-31T01:17:32;0.3;;;0.2;;
26824;SDS011;14402;48.178;11.566;2023-10-31T01:18:02;0.4;;;0.2;;
26824;SDS011;14402;48.178;11.566;2023-10-31T01:18:31;0.4;;;0.2;;
26824;SDS011;14402;48.178;11.566;2023-10-31T01:19:02;0.4;;;0.2;;
26824;SDS011;14402;48.178;11.566;2023-10-31T01:19:32;0.4;;;0.2;;
26824;SDS011;14402;48.178;11.566;2023-10-31T01:20:02;0.3;;;0.1;;
26824;SDS011;14402;48.178;11.566;2023-10-31T01:20:32;0.3;;;0.1;;
26824;SDS011;14402;48.178;11.566;2023-10-31T01:21:02;0.3;;;0.1;;
26824;SDS011;14402;48.178;11.566;2023-10-31T01:21:32;1.0;;;0.1;;
26824;SDS011;14402;48.178;11.566;2023-10-31T01:22:02;1.7;;;0.1;;
26824;SDS011;14402;48.178;11.566;2023-10-31T01:22:32;1.7;;;0.1;;
26824;SDS011;14402;48.178;11.566;2023-10-31T01:23:02;1.7;;;0.1;;
26824;SDS011;14402;48.178;11.566;2023-10-31T01:23:32;1.1;;;0.2;;
26824;SDS011;14402;48.178;11.566;2023-10-31T01:24:02;0.4;;;0.4;;
26824;SDS011;14402;48.178;11.566;2023-10-31T01:24:32;0.4;;;0.4;;
26824;SDS011;14402;48.178;11.566;2023-10-31T01:25:03;0.4;;;0.4;;
26824;SDS011;14402;48.178;11.566;2023-10-31T01:25:32;0.5;;;0.2;;
26824;SDS011;14402;48.178;11.566;2023-10-31T01:26:03;0.6;;;0.1;;
26824;SDS011;14402;48.178;11.566;2023-10-31T01:26:33;0.6;;;0.1;;
26824;SDS011;14402;48.178;11.566;2023-10-31T01:27:03;0.6;;;0.1;;
26824;SDS011;14402;48.178;11.566;2023-10-31T01:27:33;0.4;;;0.1;;
26824;SDS011;14402;48.178;11.566;2023-10-31T01:28:03;0.2;;;0.1;;
26824;SDS011;14402;48.178;11.566;2023-10-31T01:28:33;0.2;;;0.1;;
26824;SDS011;14402;48.178;11.566;2023-10-31T01:29:03;0.2;;;0.1;;
26824;SDS011;14402;48.178;11.566;2023-10-31T01:29:33;0.2;;;0.1;;
26824;SDS011;14402;48.178;11.566;2023-10-31T01:30:03;0.2;;;0.1;;
26824;SDS011;14402;48.178;11.566;2023-10-31T01:30:33;0.2;;;0.1;;
26824;SDS011;14402;48.178;11.566;2023-10-31T01:31:03;0.2;;;0.1;;
26824;SDS011;14402;48.178;11.566;2023-10-31T01:31:33;0.6;;;0.1;;
26824;SDS011;14402;48.178;11.566;2023-10-31T01:32:03;0.9;;;0.1;;
26824;SDS011;14402;48.178;11.566;2023-10-31T01:32:33;0.9;;;0.1;;
26824;SDS011;14402;48.178;11.566;2023-10-31T01:33:03;0.9;;;0.1;;
26824;SDS011;14402;48.178;11.566;2023-10-31T01:33:33;0.7;;;0.1;;
26824;SDS011;14402;48.178;11.566;2023-10-31T01:34:04;0.5;;;0.1;;
26824;SDS011;14402;48.178;11.566;2023-10-31T01:34:34;0.5;;;0.1;;
26824;SDS011;14402;48.178;11.566;2023-10-31T01:35:04;0.5;;;0.1;;
26824;SDS011;14402;48.178;11.566;2023-10-31T01:35:34;0.4;;;0.1;;
26824;SDS011;14402;48.178;11.566;2023-10-31T01:36:04;0.4;;;0.1;;
26824;SDS011;14402;48.178;11.566;2023-10-31T01:36:34;0.4;;;0.1;;
26824;SDS011;14402;48.178;11.566;2023-10-31T01:37:04;0.4;;;0.1;;
26824;SDS011;14402;48.178;11.566;2023-10-31T01:37:34;0.5;;;0.1;;
26824;SDS011;14402;48.178;11.566;2023-10-31T01:38:04;0.6;;;0.1;;
26824;SDS011;14402;48.178;11.566;2023-10-31T01:38:34;0.6;;;0.1;;
26824;SDS011;14402;48.178;11.566;2023-10-31T01:39:04;0.6;;;0.1;;
26824;SDS011;14402;48.178;11.566;2023-10-31T01:39:35;0.8;;;0.2;;
26824;SDS011;14402;48.178;11.566;2023-10-31T01:40:05;0.9;;;0.2;;
26824;SDS011;14402;48.178;11.566;2023-10-31T01:40:34;0.9;;;0.2;;
26824;SDS011;14402;48.178;11.566;2023-10-31T01:41:04;0.9;;;0.2;;
26824;SDS011;14402;48.178;11.566;2023-10-31T01:41:34;0.6;;;0.2;;
26824;SDS011;14402;48.178;11.566;2023-10-31T01:42:05;0.2;;;0.1;;
26824;SDS011;14402;48.178;11.566;2023-10-31T01:42:35;0.2;;;0.1;;
26824;SDS011;14402;48.178;11.566;2023-10-31T01:43:05;0.2;;;0.1;;
26824;SDS011;14402;48.178;11.566;2023-10-31T01:43:35;0.3;;;0.1;;
26824;SDS011;14402;48.178;11.566;2023-10-31T01:44:05;0.5;;;0.1;;
26824;SDS011;14402;48.178;11.566;2023-10-31T01:44:35;0.5;;;0.1;;
26824;SDS011;14402;48.178;11.566;2023-10-31T01:45:05;0.5;;;0.1;;
26824;SDS011;14402;48.178;11.566;2023-10-31T01:45:35;0.4;;;0.1;;
26824;SDS011;14402;48.178;11.566;2023-10-31T01:46:05;0.3;;;0.1;;
26824;SDS011;14402;48.178;11.566;2023-10-31T01:46:35;0.3;;;0.1;;
26824;SDS011;14402;48.178;11.566;2023-10-31T01:47:05;0.3;;;0.1;;
26824;SDS011;14402;48.178;11.566;2023-10-31T01:47:35;0.2;;;0.1;;
26824;SDS011;14402;48.178;11.566;2023-10-31T01:48:05;0.2;;;0.1;;
26824;SDS011;14402;48.178;11.566;2023-10-31T01:48:35;0.2;;;0.1;;
26824;SDS011;14402;48.178;11.566;2023-10-31T01:49:05;0.2;;;0.1;;
26824;SDS011;14402;48.178;11.566;2023-10-31T01:49:35;0.2;;;0.1;;
26824;SDS011;14402;48.178;11.566;2023-10-31T01:50:06;0.3;;;0.1;;
26824;SDS011;14402;48.178;11.566;2023-10-31T01:50:35;0.3;;;0.1;;
26824;SDS011;14402;48.178;11.566;2023-10-31T01:51:06;0.3;;;0.1;;
26824;SDS011;14402;48.178;11.566;2023-10-31T01:51:35;0.2;;;0.1;;
26824;SDS011;14402;48.178;11.566;2023-10-31T01:52:06;0.2;;;0.1;;
26824;SDS011;14402;48.178;11.566;2023-10-31T01:52:36;0.2;;;0.1;;
26824;SDS011;14402;48.178;11.566;2023-10-31T01:53:06;0.2;;;0.1;;
26824;SDS011;14402;48.178;11.566;2023-10-31T01:53:36;0.2;;;0.1;;
26824;SDS011;14402;48.178;11.566;2023-10-31T01:54:06;0.3;;;0.1;;
26824;SDS011;14402;48.178;11.566;2023-10-31T01:54:36;0.3;;;0.1;;
26824;SDS011;14402;48.178;11.566;2023-10-31T01:55:06;0.3;;;0.1;;
26824;SDS011;14402;48.178;11.566;2023-10-31T01:55:36;0.5;;;0.2;;
26824;SDS011;14402;48.178;11.566;2023-10-31T01:56:06;0.6;;;0.2;;
26824;SDS011;14402;48.178;11.566;2023-10-31T01:56:36;0.6;;;0.2;;
26824;SDS011;14402;48.178;11.566;2023-10-31T01:57:06;0.6;;;0.2;;
26824;SDS011;14402;48.178;11.566;2023-10-31T01:57:36;0.8;;;0.2;;
26824;SDS011;14402;48.178;11.566;2023-10-31T01:58:06;0.9;;;0.1;;
26824;SDS011;14402;48.178;11.566;2023-10-31T01:58:37;0.9;;;0.1;;
26824;SDS011;14402;48.178;11.566;2023-10-31T01:59:06;0.9;;;0.1;;
26824;SDS011;14402;48.178;11.566;2023-10-31T01:59:37;0.8;;;0.2;;
26824;SDS011;14402;48.178;11.566;2023-10-31T02:00:07;0.6;;;0.2;;
26824;SDS011;14402;48.178;11.566;2023-10-31T02:00:37;0.6;;;0.2;;
26824;SDS011;14402;48.178;11.566;2023-10-31T02:01:07;0.6;;;0.2;;
26824;SDS011;14402;48.178;11.566;2023-10-31T02:01:37;0.5;;;0.2;;
26824;SDS011;14402;48.178;11.566;2023-10-31T02:02:07;0.3;;;0.1;;
26824;SDS011;14402;48.178;11.566;2023-10-31T02:02:37;0.3;;;0.1;;
26824;SDS011;14402;48.178;11.566;2023-10-31T02:03:07;0.3;;;0.1;;
26824;SDS011;14402;48.178;11.566;2023-10-31T02:03:37;0.4;;;0.1;;
26824;SDS011;14402;48.178;11.566;2023-10-31T02:04:07;0.5;;;0.1;;
26824;SDS011;14402;48.178;11.566;2023-10-31T02:04:37;0.5;;;0.1;;
26824;SDS011;14402;48.178;11.566;2023-10-31T02:05:07;0.5;;;0.1;;
26824;SDS011;14402;48.178;11.566;2023-10-31T02:05:37;0.8;;;0.1;;
26824;SDS011;14402;48.178;11.566;2023-10-31T02:06:07;1.1;;;0.1;;
26824;SDS011;14402;48.178;11.566;2023-10-31T02:06:37;1.1;;;0.1;;
26824;SDS011;14402;48.178;11.566;2023-10-31T02:07:07;1.1;;;0.1;;
26824;SDS011;14402;48.178;11.566;2023-10-31T02:07:37;0.9;;;0.1;;
26824;SDS011;14402;48.178;11.566;2023-10-31T02:08:08;0.7;;;0.1;;
26824;SDS011;14402;48.178;11.566;2023-10-31T02:08:38;0.7;;;0.1;;
26824;SDS011;14402;48.178;11.566;2023-10-31T02:09:08;0.7;;;0.1;;
26824;SDS011;14402;48.178;11.566;2023-10-31T02:09:38;0.4;;;0.1;;
26824;SDS011;14402;48.178;11.566;2023-10-31T02:10:08;0.2;;;0.1;;
26824;SDS011;14402;48.178;11.566;2023-10-31T02:10:38;0.2;;;0.1;;
26824;SDS011;14402;48.178;11.566;2023-10-31T02:11:08;0.2;;;0.1;;
26824;SDS011;14402;48.178;11.566;2023-10-31T02:11:38;0.2;;;0.1;;
26824;SDS011;14402;48.178;11.566;2023-10-31T02:12:08;0.3;;;0.1;;
26824;SDS011;14402;48.178;11.566;2023-10-31T02:12:38;0.3;;;0.1;;
26824;SDS011;14402;48.178;11.566;2023-10-31T02:13:10;0.3;;;0.1;;
26824;SDS011;14402;48.178;11.566;2023-10-31T02:13:38;0.2;;;0.1;;
26824;SDS011;14402;48.178;11.566;2023-10-31T02:14:08;0.1;;;0.0;;
26824;SDS011;14402;48.178;11.566;2023-10-31T02:14:38;0.1;;;0.0;;
26824;SDS011;14402;48.178;11.566;2023-10-31T02:15:09;0.1;;;0.0;;
26824;SDS011;14402;48.178;11.566;2023-10-31T02:15:38;0.4;;;0.1;;
26824;SDS011;14402;48.178;11.566;2023-10-31T02:16:09;0.7;;;0.1;;
26824;SDS011;14402;48.178;11.566;2023-10-31T02:16:39;0.7;;;0.1;;
26824;SDS011;14402;48.178;11.566;2023-10-31T02:17:10;0.7;;;0.1;;
26824;SDS011;14402;48.178;11.566;2023-10-31T02:17:39;0.5;;;0.1;;
26824;SDS011;14402;48.178;11.566;2023-10-31T02:18:09;0.3;;;0.1;;
26824;SDS011;14402;48.178;11.566;2023-10-31T02:18:39;0.3;;;0.1;;
26824;SDS011;14402;48.178;11.566;2023-10-31T02:19:09;0.3;;;0.1;;
26824;SDS011;14402;48.178;11.566;2023-10-31T02:19:39;0.2;;;0.1;;
26824;SDS011;14402;48.178;11.566;2023-10-31T02:20:09;0.2;;;0.0;;
26824;SDS011;14402;48.178;11.566;2023-10-31T02:20:39;0.2;;;0.0;;
26824;SDS011;14402;48.178;11.566;2023-10-31T02:21:09;0.2;;;0.0;;
26824;SDS011;14402;48.178;11.566;2023-10-31T02:21:39;0.2;;;0.1;;
26824;SDS011;14402;48.178;11.566;2023-10-31T02:22:09;0.2;;;0.1;;
26824;SDS011;14402;48.178;11.566;2023-10-31T02:22:39;0.2;;;0.1;;
26824;SDS011;14402;48.178;11.566;2023-10-31T02:23:09;0.2;;;0.1;;
26824;SDS011;14402;48.178;11.566;2023-10-31T02:23:39;0.4;;;0.2;;
26824;SDS011;14402;48.178;11.566;2023-10-31T02:24:10;0.7;;;0.2;;
26824;SDS011;14402;48.178;11.566;2023-10-31T02:24:40;0.7;;;0.2;;
26824;SDS011;14402;48.178;11.566;2023-10-31T02:25:17;0.7;;;0.2;;
26824;SDS011;14402;48.178;11.566;2023-10-31T02:25:40;0.5;;;0.1;;
26824;SDS011;14402;48.178;11.566;2023-10-31T02:26:10;0.3;;;0.0;;
26824;SDS011;14402;48.178;11.566;2023-10-31T02:26:40;0.3;;;0.0;;
26824;SDS011;14402;48.178;11.566;2023-10-31T02:27:10;0.3;;;0.0;;
26824;SDS011;14402;48.178;11.566;2023-10-31T02:27:40;0.4;;;0.1;;
26824;SDS011;14402;48.178;11.566;2023-10-31T02:28:10;0.5;;;0.1;;
26824;SDS011;14402;48.178;11.566;2023-10-31T02:28:40;0.5;;;0.1;;
26824;SDS011;14402;48.178;11.566;2023-10-31T02:29:10;0.5;;;0.1;;
26824;SDS011;14402;48.178;11.566;2023-10-31T02:29:40;0.4;;;0.1;;
26824;SDS011;14402;48.178;11.566;2023-10-31T02:30:10;0.3;;;0.1;;
26824;SDS011;14402;48.178;11.566;2023-10-31T02:30:40;0.3;;;0.1;;
26824;SDS011;14402;48.178;11.566;2023-10-31T02:31:10;0.3;;;0.1;;
26824;SDS011;14402;48.178;11.566;2023-10-31T02:31:40;0.2;;;0.1;;
26824;SDS011;14402;48.178;11.566;2023-10-31T02:32:11;0.2;;;0.1;;
26824;SDS011;14402;48.178;11.566;2023-10-31T02:32:41;0.2;;;0.1;;
26824;SDS011;14402;48.178;11.566;2023-10-31T02:33:11;0.2;;;0.1;;
26824;SDS011;14402;48.178;11.566;2023-10-31T02:33:41;0.4;;;0.1;;
26824;SDS011;14402;48.178;11.566;2023-10-31T02:34:11;0.6;;;0.1;;
26824;SDS011;14402;48.178;11.566;2023-10-31T02:34:41;0.6;;;0.1;;
26824;SDS011;14402;48.178;11.566;2023-10-31T02:35:11;0.6;;;0.1;;
26824;SDS011;14402;48.178;11.566;2023-10-31T02:35:41;0.4;;;0.1;;
26824;SDS011;14402;48.178;11.566;2023-10-31T02:36:11;0.2;;;0.0;;
26824;SDS011;14402;48.178;11.566;2023-10-31T02:36:41;0.2;;;0.0;;
26824;SDS011;14402;48.178;11.566;2023-10-31T02:37:11;0.2;;;0.0;;
26824;SDS011;14402;48.178;11.566;2023-10-31T02:37:41;0.3;;;0.1;;
26824;SDS011;14402;48.178;11.566;2023-10-31T02:38:11;0.5;;;0.1;;
26824;SDS011;14402;48.178;11.566;2023-10-31T02:38:41;0.5;;;0.1;;
26824;SDS011;14402;48.178;11.566;2023-10-31T02:39:11;0.5;;;0.1;;
26824;SDS011;14402;48.178;11.566;2023-10-31T02:39:41;0.4;;;0.1;;
26824;SDS011;14402;48.178;11.566;2023-10-31T02:40:12;0.3;;;0.1;;
26824;SDS011;14402;48.178;11.566;2023-10-31T02:40:42;0.3;;;0.1;;
26824;SDS011;14402;48.178;11.566;2023-10-31T02:41:12;0.3;;;0.1;;
26824;SDS011;14402;48.178;11.566;2023-10-31T02:41:42;0.6;;;0.1;;
26824;SDS011;14402;48.178;11.566;2023-10-31T02:42:12;0.9;;;0.1;;
26824;SDS011;14402;48.178;11.566;2023-10-31T02:42:42;0.9;;;0.1;;
26824;SDS011;14402;48.178;11.566;2023-10-31T02:43:12;0.9;;;0.1;;
26824;SDS011;14402;48.178;11.566;2023-10-31T02:43:42;1.2;;;0.1;;
26824;SDS011;14402;48.178;11.566;2023-10-31T02:44:14;1.5;;;0.1;;
26824;SDS011;14402;48.178;11.566;2023-10-31T02:44:42;1.5;;;0.1;;
26824;SDS011;14402;48.178;11.566;2023-10-31T02:45:12;1.5;;;0.1;;
26824;SDS011;14402;48.178;11.566;2023-10-31T02:45:42;1.2;;;0.1;;
26824;SDS011;14402;48.178;11.566;2023-10-31T02:46:12;0.9;;;0.1;;
26824;SDS011;14402;48.178;11.566;2023-10-31T02:46:42;0.9;;;0.1;;
26824;SDS011;14402;48.178;11.566;2023-10-31T02:47:12;0.9;;;0.1;;
26824;SDS011;14402;48.178;11.566;2023-10-31T02:47:42;0.6;;;0.1;;
26824;SDS011;14402;48.178;11.566;2023-10-31T02:48:12;0.3;;;0.1;;
26824;SDS011;14402;48.178;11.566;2023-10-31T02:48:42;0.3;;;0.1;;
26824;SDS011;14402;48.178;11.566;2023-10-31T02:49:13;0.3;;;0.1;;
26824;SDS011;14402;48.178;11.566;2023-10-31T02:49:42;0.4;;;0.1;;
26824;SDS011;14402;48.178;11.566;2023-10-31T02:50:13;0.4;;;0.1;;
26824;SDS011;14402;48.178;11.566;2023-10-31T02:50:43;0.4;;;0.1;;
26824;SDS011;14402;48.178;11.566;2023-10-31T02:51:13;0.4;;;0.1;;
26824;SDS011;14402;48.178;11.566;2023-10-31T02:51:43;0.4;;;0.1;;
26824;SDS011;14402;48.178;11.566;2023-10-31T02:52:13;0.5;;;0.1;;
26824;SDS011;14402;48.178;11.566;2023-10-31T02:52:43;0.5;;;0.1;;
26824;SDS011;14402;48.178;11.566;2023-10-31T02:53:13;0.5;;;0.1;;
26824;SDS011;14402;48.178;11.566;2023-10-31T02:53:43;0.3;;;0.1;;
26824;SDS011;14402;48.178;11.566;2023-10-31T02:54:13;0.2;;;0.0;;
26824;SDS011;14402;48.178;11.566;2023-10-31T02:54:43;0.2;;;0.0;;
26824;SDS011;14402;48.178;11.566;2023-10-31T02:55:13;0.2;;;0.0;;
26824;SDS011;14402;48.178;11.566;2023-10-31T02:55:43;0.4;;;0.1;;
26824;SDS011;14402;48.178;11.566;2023-10-31T02:56:13;0.6;;;0.1;;
26824;SDS011;14402;48.178;11.566;2023-10-31T02:56:43;0.6;;;0.1;;
26824;SDS011;14402;48.178;11.566;2023-10-31T02:57:14;0.6;;;0.1;;
26824;SDS011;14402;48.178;11.566;2023-10-31T02:57:43;0.6;;;0.1;;
26824;SDS011;14402;48.178;11.566;2023-10-31T02:58:14;0.6;;;0.1;;
26824;SDS011;14402;48.178;11.566;2023-10-31T02:58:44;0.6;;;0.1;;
26824;SDS011;14402;48.178;11.566;2023-10-31T02:59:14;0.6;;;0.1;;
26824;SDS011;14402;48.178;11.566;2023-10-31T02:59:44;0.8;;;0.1;;
26824;SDS011;14402;48.178;11.566;2023-10-31T03:00:14;1.0;;;0.1;;
26824;SDS011;14402;48.178;11.566;2023-10-31T03:00:44;1.0;;;0.1;;
26824;SDS011;14402;48.178;11.566;2023-10-31T03:01:14;1.0;;;0.1;;
26824;SDS011;14402;48.178;11.566;2023-10-31T03:01:44;1.1;;;0.1;;
26824;SDS011;14402;48.178;11.566;2023-10-31T03:02:14;1.3;;;0.1;;
26824;SDS011;14402;48.178;11.566;2023-10-31T03:02:44;1.3;;;0.1;;
26824;SDS011;14402;48.178;11.566;2023-10-31T03:03:14;1.3;;;0.1;;
26824;SDS011;14402;48.178;11.566;2023-10-31T03:03:44;0.9;;;0.1;;